sensor_id;sensor_type;location;lat;lon;timestamp;P1;durP1;ratioP1;P2;durP2;ratioP2
9218;SDS011;4644;48.858;9.184;2023-03-26T00:00:04;4.67;;;1.53;;
9218;SDS011;4644;48.858;9.184;2023-03-26T00:02:54;3.67;;;1.70;;
9218;SDS011;4644;48.858;9.184;2023-03-26T00:05:36;4.37;;;1.57;;
9218;SDS011;4644;48.858;9.184;2023-03-26T00:08:04;2.23;;;1.30;;
9218;SDS011;4644;48.858;9.184;2023-03-26T00:10:37;2.60;;;1.27;;
9218;SDS011;4644;48.858;9.184;2023-03-26T00:13:06;2.67;;;1.27;;
9218;SDS011;4644;48.858;9.184;2023-03-26T00:15:37;2.13;;;1.50;;
9218;SDS011;4644;48.858;9.184;2023-03-26T00:18:09;3.57;;;1.40;;
9218;SDS011;4644;48.858;9.184;2023-03-26T00:20:36;4.37;;;1.43;;
9218;SDS011;4644;48.858;9.184;2023-03-26T00:23:05;2.57;;;1.40;;
9218;SDS011;4644;48.858;9.184;2023-03-26T00:25:33;2.57;;;1.57;;
9218;SDS011;4644;48.858;9.184;2023-03-26T00:28:07;4.53;;;1.70;;
9218;SDS011;4644;48.858;9.184;2023-03-26T00:30:34;2.17;;;1.40;;
9218;SDS011;4644;48.858;9.184;2023-03-26T00:33:05;1.97;;;1.40;;
9218;SDS011;4644;48.858;9.184;2023-03-26T00:35:34;1.83;;;1.60;;
9218;SDS011;4644;48.858;9.184;2023-03-26T00:38:01;2.13;;;1.60;;
9218;SDS011;4644;48.858;9.184;2023-03-26T00:40:28;3.43;;;1.40;;
9218;SDS011;4644;48.858;9.184;2023-03-26T00:43:00;4.17;;;1.67;;
9218;SDS011;4644;48.858;9.184;2023-03-26T00:45:35;2.40;;;1.57;;
9218;SDS011;4644;48.858;9.184;2023-03-26T00:48:02;3.07;;;1.53;;
9218;SDS011;4644;48.858;9.184;2023-03-26T00:50:30;4.00;;;1.57;;
9218;SDS011;4644;48.858;9.184;2023-03-26T00:52:57;2.87;;;1.10;;
9218;SDS011;4644;48.858;9.184;2023-03-26T00:55:24;4.93;;;1.53;;
9218;SDS011;4644;48.858;9.184;2023-03-26T00:57:51;3.03;;;1.60;;
9218;SDS011;4644;48.858;9.184;2023-03-26T01:00:19;2.53;;;1.37;;
9218;SDS011;4644;48.858;9.184;2023-03-26T01:02:57;2.33;;;1.70;;
9218;SDS011;4644;48.858;9.184;2023-03-26T01:05:41;5.30;;;1.50;;
9218;SDS011;4644;48.858;9.184;2023-03-26T01:08:18;3.33;;;1.70;;
9218;SDS011;4644;48.858;9.184;2023-03-26T01:10:49;4.20;;;1.47;;
9218;SDS011;4644;48.858;9.184;2023-03-26T01:13:26;3.37;;;1.67;;
9218;SDS011;4644;48.858;9.184;2023-03-26T01:15:56;3.47;;;1.83;;
9218;SDS011;4644;48.858;9.184;2023-03-26T01:18:28;5.47;;;1.23;;
9218;SDS011;4644;48.858;9.184;2023-03-26T01:21:05;2.90;;;1.17;;
9218;SDS011;4644;48.858;9.184;2023-03-26T01:23:38;3.00;;;1.47;;
9218;SDS011;4644;48.858;9.184;2023-03-26T01:26:11;2.27;;;1.30;;
9218;SDS011;4644;48.858;9.184;2023-03-26T01:28:49;4.53;;;1.67;;
9218;SDS011;4644;48.858;9.184;2023-03-26T01:31:20;4.00;;;1.50;;
9218;SDS011;4644;48.858;9.184;2023-03-26T01:33:55;3.97;;;2.17;;
9218;SDS011;4644;48.858;9.184;2023-03-26T01:36:28;3.00;;;1.67;;
9218;SDS011;4644;48.858;9.184;2023-03-26T01:39:04;1.87;;;1.40;;
9218;SDS011;4644;48.858;9.184;2023-03-26T01:41:37;3.73;;;1.80;;
9218;SDS011;4644;48.858;9.184;2023-03-26T01:44:10;5.67;;;1.40;;
9218;SDS011;4644;48.858;9.184;2023-03-26T01:46:46;4.43;;;1.70;;
9218;SDS011;4644;48.858;9.184;2023-03-26T01:49:16;9.40;;;1.90;;
9218;SDS011;4644;48.858;9.184;2023-03-26T01:51:43;1.60;;;1.30;;
9218;SDS011;4644;48.858;9.184;2023-03-26T01:54:12;4.07;;;1.80;;
9218;SDS011;4644;48.858;9.184;2023-03-26T01:56:49;3.77;;;1.53;;
9218;SDS011;4644;48.858;9.184;2023-03-26T01:59:37;4.50;;;1.20;;
9218;SDS011;4644;48.858;9.184;2023-03-26T02:02:20;4.37;;;1.57;;
9218;SDS011;4644;48.858;9.184;2023-03-26T02:04:56;5.43;;;1.50;;
9218;SDS011;4644;48.858;9.184;2023-03-26T02:07:30;6.20;;;2.63;;
9218;SDS011;4644;48.858;9.184;2023-03-26T02:10:03;4.20;;;1.50;;
9218;SDS011;4644;48.858;9.184;2023-03-26T02:12:37;6.43;;;1.50;;
9218;SDS011;4644;48.858;9.184;2023-03-26T02:15:05;6.07;;;1.40;;
9218;SDS011;4644;48.858;9.184;2023-03-26T02:17:33;5.23;;;1.57;;
9218;SDS011;4644;48.858;9.184;2023-03-26T02:20:00;3.30;;;1.40;;
9218;SDS011;4644;48.858;9.184;2023-03-26T02:22:34;1.57;;;1.23;;
9218;SDS011;4644;48.858;9.184;2023-03-26T02:25:06;2.63;;;1.20;;
9218;SDS011;4644;48.858;9.184;2023-03-26T02:27:34;2.90;;;1.27;;
9218;SDS011;4644;48.858;9.184;2023-03-26T02:30:05;7.60;;;1.60;;
9218;SDS011;4644;48.858;9.184;2023-03-26T02:32:34;4.00;;;1.50;;
9218;SDS011;4644;48.858;9.184;2023-03-26T02:35:03;1.57;;;1.23;;
9218;SDS011;4644;48.858;9.184;2023-03-26T02:37:30;2.07;;;1.10;;
9218;SDS011;4644;48.858;9.184;2023-03-26T02:39:59;2.77;;;1.23;;
9218;SDS011;4644;48.858;9.184;2023-03-26T02:42:26;6.57;;;1.50;;
9218;SDS011;4644;48.858;9.184;2023-03-26T02:44:54;3.80;;;1.30;;
9218;SDS011;4644;48.858;9.184;2023-03-26T02:47:21;3.20;;;1.47;;
9218;SDS011;4644;48.858;9.184;2023-03-26T02:49:48;5.77;;;1.63;;
9218;SDS011;4644;48.858;9.184;2023-03-26T02:52:15;3.00;;;1.30;;
9218;SDS011;4644;48.858;9.184;2023-03-26T02:54:42;6.40;;;1.37;;
9218;SDS011;4644;48.858;9.184;2023-03-26T02:57:09;2.93;;;1.40;;
9218;SDS011;4644;48.858;9.184;2023-03-26T02:59:36;5.43;;;1.70;;
9218;SDS011;4644;48.858;9.184;2023-03-26T03:02:05;1.10;;;1.00;;
9218;SDS011;4644;48.858;9.184;2023-03-26T03:04:32;3.57;;;1.40;;
9218;SDS011;4644;48.858;9.184;2023-03-26T03:06:59;2.43;;;1.57;;
9218;SDS011;4644;48.858;9.184;2023-03-26T03:09:26;4.73;;;1.60;;
9218;SDS011;4644;48.858;9.184;2023-03-26T03:11:53;6.90;;;1.60;;
9218;SDS011;4644;48.858;9.184;2023-03-26T03:14:20;5.80;;;2.33;;
9218;SDS011;4644;48.858;9.184;2023-03-26T03:16:47;5.23;;;1.67;;
9218;SDS011;4644;48.858;9.184;2023-03-26T03:19:15;2.43;;;1.40;;
9218;SDS011;4644;48.858;9.184;2023-03-26T03:21:42;6.37;;;1.43;;
9218;SDS011;4644;48.858;9.184;2023-03-26T03:24:10;3.97;;;1.50;;
9218;SDS011;4644;48.858;9.184;2023-03-26T03:26:37;2.90;;;1.40;;
9218;SDS011;4644;48.858;9.184;2023-03-26T03:29:06;5.37;;;1.33;;
9218;SDS011;4644;48.858;9.184;2023-03-26T03:31:34;4.67;;;1.40;;
9218;SDS011;4644;48.858;9.184;2023-03-26T03:34:01;3.10;;;1.30;;
9218;SDS011;4644;48.858;9.184;2023-03-26T03:36:29;8.10;;;1.50;;
9218;SDS011;4644;48.858;9.184;2023-03-26T03:38:57;3.50;;;1.33;;
9218;SDS011;4644;48.858;9.184;2023-03-26T03:41:26;3.60;;;1.43;;
9218;SDS011;4644;48.858;9.184;2023-03-26T03:43:53;6.17;;;1.60;;
9218;SDS011;4644;48.858;9.184;2023-03-26T03:46:23;5.20;;;1.47;;
9218;SDS011;4644;48.858;9.184;2023-03-26T03:48:50;4.90;;;1.73;;
9218;SDS011;4644;48.858;9.184;2023-03-26T03:51:17;3.93;;;1.37;;
9218;SDS011;4644;48.858;9.184;2023-03-26T03:53:45;5.57;;;1.60;;
9218;SDS011;4644;48.858;9.184;2023-03-26T03:56:13;2.63;;;1.57;;
9218;SDS011;4644;48.858;9.184;2023-03-26T03:58:43;6.67;;;1.67;;
9218;SDS011;4644;48.858;9.184;2023-03-26T04:01:11;3.07;;;1.37;;
9218;SDS011;4644;48.858;9.184;2023-03-26T04:03:39;4.97;;;1.30;;
9218;SDS011;4644;48.858;9.184;2023-03-26T04:06:10;7.50;;;1.70;;
9218;SDS011;4644;48.858;9.184;2023-03-26T04:08:37;4.90;;;1.60;;
9218;SDS011;4644;48.858;9.184;2023-03-26T04:11:06;4.33;;;1.50;;
9218;SDS011;4644;48.858;9.184;2023-03-26T04:13:33;3.27;;;1.23;;
9218;SDS011;4644;48.858;9.184;2023-03-26T04:16:01;4.27;;;1.60;;
9218;SDS011;4644;48.858;9.184;2023-03-26T04:18:28;5.97;;;1.53;;
9218;SDS011;4644;48.858;9.184;2023-03-26T04:20:56;4.47;;;1.60;;
9218;SDS011;4644;48.858;9.184;2023-03-26T04:23:26;2.83;;;1.33;;
9218;SDS011;4644;48.858;9.184;2023-03-26T04:25:54;4.63;;;1.70;;
9218;SDS011;4644;48.858;9.184;2023-03-26T04:28:26;3.90;;;1.40;;
9218;SDS011;4644;48.858;9.184;2023-03-26T04:30:56;4.87;;;1.90;;
9218;SDS011;4644;48.858;9.184;2023-03-26T04:33:26;2.97;;;1.47;;
9218;SDS011;4644;48.858;9.184;2023-03-26T04:35:54;3.47;;;1.80;;
9218;SDS011;4644;48.858;9.184;2023-03-26T04:38:25;5.57;;;2.27;;
9218;SDS011;4644;48.858;9.184;2023-03-26T04:40:53;3.37;;;1.80;;
9218;SDS011;4644;48.858;9.184;2023-03-26T04:43:24;4.43;;;1.60;;
9218;SDS011;4644;48.858;9.184;2023-03-26T04:45:54;4.53;;;1.40;;
9218;SDS011;4644;48.858;9.184;2023-03-26T04:48:21;4.67;;;1.73;;
9218;SDS011;4644;48.858;9.184;2023-03-26T04:50:48;6.93;;;1.40;;
9218;SDS011;4644;48.858;9.184;2023-03-26T04:53:16;2.63;;;1.40;;
9218;SDS011;4644;48.858;9.184;2023-03-26T04:55:48;2.73;;;1.40;;
9218;SDS011;4644;48.858;9.184;2023-03-26T04:58:18;4.60;;;2.00;;
9218;SDS011;4644;48.858;9.184;2023-03-26T05:00:47;6.07;;;1.57;;
9218;SDS011;4644;48.858;9.184;2023-03-26T05:03:14;2.77;;;1.30;;
9218;SDS011;4644;48.858;9.184;2023-03-26T05:05:44;9.50;;;2.10;;
9218;SDS011;4644;48.858;9.184;2023-03-26T05:08:13;7.77;;;1.70;;
9218;SDS011;4644;48.858;9.184;2023-03-26T05:10:40;5.43;;;1.53;;
9218;SDS011;4644;48.858;9.184;2023-03-26T05:13:07;2.07;;;1.30;;
9218;SDS011;4644;48.858;9.184;2023-03-26T05:15:35;4.60;;;1.80;;
9218;SDS011;4644;48.858;9.184;2023-03-26T05:18:03;3.80;;;1.60;;
9218;SDS011;4644;48.858;9.184;2023-03-26T05:20:32;4.03;;;1.67;;
9218;SDS011;4644;48.858;9.184;2023-03-26T05:23:00;3.20;;;1.63;;
9218;SDS011;4644;48.858;9.184;2023-03-26T05:25:27;1.77;;;1.33;;
9218;SDS011;4644;48.858;9.184;2023-03-26T05:27:54;4.17;;;1.93;;
9218;SDS011;4644;48.858;9.184;2023-03-26T05:30:21;5.07;;;1.83;;
9218;SDS011;4644;48.858;9.184;2023-03-26T05:32:48;4.83;;;1.90;;
9218;SDS011;4644;48.858;9.184;2023-03-26T05:35:17;5.67;;;1.53;;
9218;SDS011;4644;48.858;9.184;2023-03-26T05:37:45;4.97;;;1.80;;
9218;SDS011;4644;48.858;9.184;2023-03-26T05:40:13;5.13;;;1.60;;
9218;SDS011;4644;48.858;9.184;2023-03-26T05:42:41;2.47;;;1.67;;
9218;SDS011;4644;48.858;9.184;2023-03-26T05:45:09;5.43;;;1.90;;
9218;SDS011;4644;48.858;9.184;2023-03-26T05:47:37;2.67;;;1.43;;
9218;SDS011;4644;48.858;9.184;2023-03-26T05:50:04;3.27;;;1.50;;
9218;SDS011;4644;48.858;9.184;2023-03-26T05:52:34;2.77;;;1.30;;
9218;SDS011;4644;48.858;9.184;2023-03-26T05:55:01;5.00;;;1.77;;
9218;SDS011;4644;48.858;9.184;2023-03-26T05:57:28;3.67;;;1.60;;
9218;SDS011;4644;48.858;9.184;2023-03-26T05:59:56;4.87;;;1.90;;
9218;SDS011;4644;48.858;9.184;2023-03-26T06:02:23;5.63;;;1.83;;
9218;SDS011;4644;48.858;9.184;2023-03-26T06:04:50;6.67;;;1.80;;
9218;SDS011;4644;48.858;9.184;2023-03-26T06:07:17;4.23;;;2.27;;
9218;SDS011;4644;48.858;9.184;2023-03-26T06:09:46;4.30;;;1.57;;
9218;SDS011;4644;48.858;9.184;2023-03-26T06:12:14;4.33;;;1.53;;
9218;SDS011;4644;48.858;9.184;2023-03-26T06:14:41;2.03;;;1.30;;
9218;SDS011;4644;48.858;9.184;2023-03-26T06:17:08;6.00;;;1.53;;
9218;SDS011;4644;48.858;9.184;2023-03-26T06:19:35;4.67;;;1.57;;
9218;SDS011;4644;48.858;9.184;2023-03-26T06:22:02;3.50;;;1.90;;
9218;SDS011;4644;48.858;9.184;2023-03-26T06:24:31;5.70;;;1.70;;
9218;SDS011;4644;48.858;9.184;2023-03-26T06:27:00;6.13;;;2.50;;
9218;SDS011;4644;48.858;9.184;2023-03-26T06:29:28;4.00;;;1.60;;
9218;SDS011;4644;48.858;9.184;2023-03-26T06:31:55;4.47;;;1.60;;
9218;SDS011;4644;48.858;9.184;2023-03-26T06:34:22;4.97;;;1.70;;
9218;SDS011;4644;48.858;9.184;2023-03-26T06:36:49;4.17;;;1.73;;
9218;SDS011;4644;48.858;9.184;2023-03-26T06:39:17;2.60;;;1.67;;
9218;SDS011;4644;48.858;9.184;2023-03-26T06:41:44;3.00;;;1.40;;
9218;SDS011;4644;48.858;9.184;2023-03-26T06:44:13;2.83;;;1.60;;
9218;SDS011;4644;48.858;9.184;2023-03-26T06:46:40;2.67;;;1.40;;
9218;SDS011;4644;48.858;9.184;2023-03-26T06:49:07;5.93;;;1.77;;
9218;SDS011;4644;48.858;9.184;2023-03-26T06:51:34;2.93;;;1.40;;
9218;SDS011;4644;48.858;9.184;2023-03-26T06:54:02;6.77;;;2.00;;
9218;SDS011;4644;48.858;9.184;2023-03-26T06:56:29;3.93;;;1.67;;
9218;SDS011;4644;48.858;9.184;2023-03-26T06:58:57;2.83;;;1.70;;
9218;SDS011;4644;48.858;9.184;2023-03-26T07:01:25;3.40;;;1.50;;
9218;SDS011;4644;48.858;9.184;2023-03-26T07:03:52;3.97;;;1.60;;
9218;SDS011;4644;48.858;9.184;2023-03-26T07:06:19;4.10;;;1.67;;
9218;SDS011;4644;48.858;9.184;2023-03-26T07:08:46;5.00;;;1.77;;
9218;SDS011;4644;48.858;9.184;2023-03-26T07:11:13;4.07;;;1.47;;
9218;SDS011;4644;48.858;9.184;2023-03-26T07:13:43;5.80;;;1.77;;
9218;SDS011;4644;48.858;9.184;2023-03-26T07:16:11;6.07;;;1.80;;
9218;SDS011;4644;48.858;9.184;2023-03-26T07:18:40;2.53;;;1.50;;
9218;SDS011;4644;48.858;9.184;2023-03-26T07:21:08;2.47;;;1.23;;
9218;SDS011;4644;48.858;9.184;2023-03-26T07:23:43;4.53;;;1.83;;
9218;SDS011;4644;48.858;9.184;2023-03-26T07:26:13;4.10;;;1.63;;
9218;SDS011;4644;48.858;9.184;2023-03-26T07:28:51;8.93;;;1.80;;
9218;SDS011;4644;48.858;9.184;2023-03-26T07:31:24;4.30;;;1.53;;
9218;SDS011;4644;48.858;9.184;2023-03-26T07:34:02;3.27;;;1.83;;
9218;SDS011;4644;48.858;9.184;2023-03-26T07:36:38;4.20;;;1.50;;
9218;SDS011;4644;48.858;9.184;2023-03-26T07:39:13;5.27;;;1.67;;
9218;SDS011;4644;48.858;9.184;2023-03-26T07:41:53;2.90;;;1.70;;
9218;SDS011;4644;48.858;9.184;2023-03-26T07:44:34;8.50;;;1.93;;
9218;SDS011;4644;48.858;9.184;2023-03-26T07:47:18;5.13;;;2.03;;
9218;SDS011;4644;48.858;9.184;2023-03-26T07:49:52;6.10;;;1.73;;
9218;SDS011;4644;48.858;9.184;2023-03-26T07:52:19;9.27;;;2.47;;
9218;SDS011;4644;48.858;9.184;2023-03-26T07:54:47;4.27;;;2.07;;
9218;SDS011;4644;48.858;9.184;2023-03-26T07:57:16;4.77;;;1.70;;
9218;SDS011;4644;48.858;9.184;2023-03-26T07:59:53;4.43;;;2.00;;
9218;SDS011;4644;48.858;9.184;2023-03-26T08:05:28;5.13;;;2.00;;
9218;SDS011;4644;48.858;9.184;2023-03-26T08:08:03;6.67;;;1.97;;
9218;SDS011;4644;48.858;9.184;2023-03-26T08:10:41;6.37;;;2.20;;
9218;SDS011;4644;48.858;9.184;2023-03-26T08:13:20;5.53;;;1.87;;
9218;SDS011;4644;48.858;9.184;2023-03-26T08:15:52;6.63;;;2.17;;
9218;SDS011;4644;48.858;9.184;2023-03-26T08:18:33;6.20;;;2.20;;
9218;SDS011;4644;48.858;9.184;2023-03-26T08:21:12;5.90;;;2.00;;
9218;SDS011;4644;48.858;9.184;2023-03-26T08:23:46;4.77;;;2.47;;
9218;SDS011;4644;48.858;9.184;2023-03-26T08:26:24;7.50;;;3.30;;
9218;SDS011;4644;48.858;9.184;2023-03-26T08:28:59;6.80;;;2.70;;
9218;SDS011;4644;48.858;9.184;2023-03-26T08:31:33;5.27;;;2.70;;
9218;SDS011;4644;48.858;9.184;2023-03-26T08:34:03;8.17;;;3.03;;
9218;SDS011;4644;48.858;9.184;2023-03-26T08:36:31;7.93;;;3.17;;
9218;SDS011;4644;48.858;9.184;2023-03-26T08:38:58;5.10;;;2.90;;
9218;SDS011;4644;48.858;9.184;2023-03-26T08:44:50;5.83;;;2.40;;
9218;SDS011;4644;48.858;9.184;2023-03-26T08:53:52;7.87;;;2.83;;
9218;SDS011;4644;48.858;9.184;2023-03-26T08:56:51;6.47;;;2.23;;
9218;SDS011;4644;48.858;9.184;2023-03-26T09:02:41;7.33;;;2.40;;
9218;SDS011;4644;48.858;9.184;2023-03-26T09:05:31;5.77;;;2.30;;
9218;SDS011;4644;48.858;9.184;2023-03-26T09:08:35;5.93;;;2.30;;
9218;SDS011;4644;48.858;9.184;2023-03-26T09:14:46;5.27;;;2.10;;
9218;SDS011;4644;48.858;9.184;2023-03-26T09:17:46;4.83;;;2.00;;
9218;SDS011;4644;48.858;9.184;2023-03-26T09:23:55;6.23;;;2.30;;
9218;SDS011;4644;48.858;9.184;2023-03-26T09:26:55;3.93;;;1.57;;
9218;SDS011;4644;48.858;9.184;2023-03-26T09:32:37;6.23;;;2.03;;
9218;SDS011;4644;48.858;9.184;2023-03-26T09:35:35;6.17;;;1.80;;
9218;SDS011;4644;48.858;9.184;2023-03-26T09:38:24;5.90;;;2.43;;
9218;SDS011;4644;48.858;9.184;2023-03-26T09:41:11;4.00;;;1.80;;
9218;SDS011;4644;48.858;9.184;2023-03-26T09:43:46;5.33;;;1.80;;
9218;SDS011;4644;48.858;9.184;2023-03-26T09:46:39;3.87;;;1.83;;
9218;SDS011;4644;48.858;9.184;2023-03-26T09:49:24;5.30;;;2.40;;
9218;SDS011;4644;48.858;9.184;2023-03-26T09:52:15;5.07;;;2.27;;
9218;SDS011;4644;48.858;9.184;2023-03-26T09:55:19;2.07;;;1.60;;
9218;SDS011;4644;48.858;9.184;2023-03-26T10:00:50;3.60;;;1.40;;
9218;SDS011;4644;48.858;9.184;2023-03-26T10:03:34;4.37;;;1.37;;
9218;SDS011;4644;48.858;9.184;2023-03-26T10:06:33;2.57;;;1.60;;
9218;SDS011;4644;48.858;9.184;2023-03-26T10:09:10;1.40;;;1.30;;
9218;SDS011;4644;48.858;9.184;2023-03-26T10:11:51;4.13;;;1.30;;
9218;SDS011;4644;48.858;9.184;2023-03-26T10:14:37;2.20;;;1.33;;
9218;SDS011;4644;48.858;9.184;2023-03-26T10:17:15;1.93;;;1.10;;
9218;SDS011;4644;48.858;9.184;2023-03-26T10:20:01;2.03;;;1.53;;
9218;SDS011;4644;48.858;9.184;2023-03-26T10:22:44;1.63;;;1.10;;
9218;SDS011;4644;48.858;9.184;2023-03-26T10:25:32;1.67;;;1.10;;
9218;SDS011;4644;48.858;9.184;2023-03-26T10:28:15;1.43;;;1.10;;
9218;SDS011;4644;48.858;9.184;2023-03-26T10:33:49;2.00;;;1.00;;
9218;SDS011;4644;48.858;9.184;2023-03-26T10:36:28;1.93;;;1.17;;
9218;SDS011;4644;48.858;9.184;2023-03-26T10:39:13;1.87;;;1.20;;
9218;SDS011;4644;48.858;9.184;2023-03-26T10:45:12;1.93;;;1.00;;
9218;SDS011;4644;48.858;9.184;2023-03-26T10:47:50;2.93;;;1.00;;
9218;SDS011;4644;48.858;9.184;2023-03-26T10:50:43;3.10;;;1.10;;
9218;SDS011;4644;48.858;9.184;2023-03-26T10:53:24;3.90;;;1.13;;
9218;SDS011;4644;48.858;9.184;2023-03-26T10:55:59;3.10;;;1.10;;
9218;SDS011;4644;48.858;9.184;2023-03-26T10:58:34;1.40;;;0.77;;
9218;SDS011;4644;48.858;9.184;2023-03-26T11:01:03;2.07;;;0.90;;
9218;SDS011;4644;48.858;9.184;2023-03-26T11:03:44;1.00;;;0.90;;
9218;SDS011;4644;48.858;9.184;2023-03-26T11:06:33;0.70;;;0.70;;
9218;SDS011;4644;48.858;9.184;2023-03-26T11:09:13;0.67;;;0.67;;
9218;SDS011;4644;48.858;9.184;2023-03-26T11:11:52;1.40;;;1.00;;
9218;SDS011;4644;48.858;9.184;2023-03-26T11:14:25;1.07;;;0.80;;
9218;SDS011;4644;48.858;9.184;2023-03-26T11:17:00;2.17;;;0.93;;
9218;SDS011;4644;48.858;9.184;2023-03-26T11:19:36;3.27;;;0.90;;
9218;SDS011;4644;48.858;9.184;2023-03-26T11:22:15;0.70;;;0.70;;
9218;SDS011;4644;48.858;9.184;2023-03-26T11:25:07;0.60;;;0.60;;
9218;SDS011;4644;48.858;9.184;2023-03-26T11:27:54;1.30;;;0.83;;
9218;SDS011;4644;48.858;9.184;2023-03-26T11:30:33;1.80;;;0.83;;
9218;SDS011;4644;48.858;9.184;2023-03-26T11:33:12;0.97;;;0.70;;
9218;SDS011;4644;48.858;9.184;2023-03-26T11:35:45;1.93;;;0.83;;
9218;SDS011;4644;48.858;9.184;2023-03-26T11:38:16;1.57;;;0.80;;
9218;SDS011;4644;48.858;9.184;2023-03-26T11:40:49;2.97;;;0.87;;
9218;SDS011;4644;48.858;9.184;2023-03-26T11:43:20;1.43;;;1.00;;
9218;SDS011;4644;48.858;9.184;2023-03-26T11:45:51;1.50;;;0.90;;
9218;SDS011;4644;48.858;9.184;2023-03-26T11:48:21;1.00;;;0.90;;
9218;SDS011;4644;48.858;9.184;2023-03-26T11:50:54;0.90;;;0.90;;
9218;SDS011;4644;48.858;9.184;2023-03-26T11:53:26;1.20;;;0.90;;
9218;SDS011;4644;48.858;9.184;2023-03-26T11:55:58;0.63;;;0.63;;
9218;SDS011;4644;48.858;9.184;2023-03-26T11:58:29;1.10;;;1.00;;
9218;SDS011;4644;48.858;9.184;2023-03-26T12:01:03;2.83;;;0.83;;
9218;SDS011;4644;48.858;9.184;2023-03-26T12:03:31;0.70;;;0.70;;
9218;SDS011;4644;48.858;9.184;2023-03-26T12:05:59;2.03;;;0.90;;
9218;SDS011;4644;48.858;9.184;2023-03-26T12:08:29;1.80;;;1.00;;
9218;SDS011;4644;48.858;9.184;2023-03-26T12:11:04;3.30;;;1.37;;
9218;SDS011;4644;48.858;9.184;2023-03-26T12:13:36;1.67;;;0.80;;
9218;SDS011;4644;48.858;9.184;2023-03-26T12:16:09;1.37;;;0.97;;
9218;SDS011;4644;48.858;9.184;2023-03-26T12:18:38;1.07;;;0.90;;
9218;SDS011;4644;48.858;9.184;2023-03-26T12:21:09;0.83;;;0.83;;
9218;SDS011;4644;48.858;9.184;2023-03-26T12:23:49;0.70;;;0.70;;
9218;SDS011;4644;48.858;9.184;2023-03-26T12:29:15;0.90;;;0.90;;
9218;SDS011;4644;48.858;9.184;2023-03-26T12:31:50;1.87;;;1.07;;
9218;SDS011;4644;48.858;9.184;2023-03-26T12:34:22;1.50;;;0.80;;
9218;SDS011;4644;48.858;9.184;2023-03-26T12:36:59;1.00;;;0.70;;
9218;SDS011;4644;48.858;9.184;2023-03-26T12:39:32;1.83;;;1.10;;
9218;SDS011;4644;48.858;9.184;2023-03-26T12:42:03;2.33;;;1.10;;
9218;SDS011;4644;48.858;9.184;2023-03-26T12:44:50;1.77;;;1.17;;
9218;SDS011;4644;48.858;9.184;2023-03-26T12:47:19;2.67;;;0.90;;
9218;SDS011;4644;48.858;9.184;2023-03-26T12:49:47;1.40;;;1.00;;
9218;SDS011;4644;48.858;9.184;2023-03-26T12:52:23;1.57;;;0.87;;
9218;SDS011;4644;48.858;9.184;2023-03-26T12:55:03;2.03;;;1.00;;
9218;SDS011;4644;48.858;9.184;2023-03-26T12:57:42;1.00;;;1.00;;
9218;SDS011;4644;48.858;9.184;2023-03-26T13:00:23;1.13;;;0.90;;
9218;SDS011;4644;48.858;9.184;2023-03-26T13:03:03;1.57;;;0.80;;
9218;SDS011;4644;48.858;9.184;2023-03-26T13:05:46;2.80;;;0.97;;
9218;SDS011;4644;48.858;9.184;2023-03-26T13:08:38;3.27;;;0.90;;
9218;SDS011;4644;48.858;9.184;2023-03-26T13:11:19;1.07;;;0.97;;
9218;SDS011;4644;48.858;9.184;2023-03-26T13:14:02;4.13;;;1.20;;
9218;SDS011;4644;48.858;9.184;2023-03-26T13:16:38;2.27;;;1.00;;
9218;SDS011;4644;48.858;9.184;2023-03-26T13:19:13;2.27;;;0.80;;
9218;SDS011;4644;48.858;9.184;2023-03-26T13:21:48;5.07;;;1.23;;
9218;SDS011;4644;48.858;9.184;2023-03-26T13:24:28;4.07;;;1.10;;
9218;SDS011;4644;48.858;9.184;2023-03-26T13:27:06;3.83;;;1.10;;
9218;SDS011;4644;48.858;9.184;2023-03-26T13:29:45;3.13;;;1.00;;
9218;SDS011;4644;48.858;9.184;2023-03-26T13:32:21;2.00;;;0.90;;
9218;SDS011;4644;48.858;9.184;2023-03-26T13:34:58;2.23;;;0.90;;
9218;SDS011;4644;48.858;9.184;2023-03-26T13:37:39;2.80;;;0.93;;
9218;SDS011;4644;48.858;9.184;2023-03-26T13:40:17;2.67;;;1.00;;
9218;SDS011;4644;48.858;9.184;2023-03-26T13:42:56;4.00;;;1.10;;
9218;SDS011;4644;48.858;9.184;2023-03-26T13:45:48;1.30;;;0.97;;
9218;SDS011;4644;48.858;9.184;2023-03-26T13:48:22;1.50;;;1.20;;
9218;SDS011;4644;48.858;9.184;2023-03-26T13:50:55;2.60;;;1.37;;
9218;SDS011;4644;48.858;9.184;2023-03-26T13:53:28;3.50;;;1.23;;
9218;SDS011;4644;48.858;9.184;2023-03-26T13:56:00;1.90;;;0.87;;
9218;SDS011;4644;48.858;9.184;2023-03-26T13:58:30;4.30;;;1.00;;
9218;SDS011;4644;48.858;9.184;2023-03-26T14:01:06;1.10;;;0.80;;
9218;SDS011;4644;48.858;9.184;2023-03-26T14:03:41;1.40;;;0.87;;
9218;SDS011;4644;48.858;9.184;2023-03-26T14:06:19;1.10;;;0.80;;
9218;SDS011;4644;48.858;9.184;2023-03-26T14:09:08;2.87;;;1.03;;
9218;SDS011;4644;48.858;9.184;2023-03-26T14:11:46;1.97;;;1.10;;
9218;SDS011;4644;48.858;9.184;2023-03-26T14:14:24;2.93;;;1.20;;
9218;SDS011;4644;48.858;9.184;2023-03-26T14:17:02;2.80;;;1.60;;
9218;SDS011;4644;48.858;9.184;2023-03-26T14:19:44;3.73;;;1.07;;
9218;SDS011;4644;48.858;9.184;2023-03-26T14:22:29;1.07;;;0.93;;
9218;SDS011;4644;48.858;9.184;2023-03-26T14:25:12;1.90;;;1.10;;
9218;SDS011;4644;48.858;9.184;2023-03-26T14:28:05;2.77;;;1.30;;
9218;SDS011;4644;48.858;9.184;2023-03-26T14:30:50;1.63;;;0.83;;
9218;SDS011;4644;48.858;9.184;2023-03-26T14:36:27;2.97;;;1.30;;
9218;SDS011;4644;48.858;9.184;2023-03-26T14:39:34;1.00;;;0.90;;
9218;SDS011;4644;48.858;9.184;2023-03-26T14:42:23;1.53;;;1.23;;
9218;SDS011;4644;48.858;9.184;2023-03-26T14:48:02;3.27;;;1.40;;
9218;SDS011;4644;48.858;9.184;2023-03-26T14:50:47;1.23;;;0.93;;
9218;SDS011;4644;48.858;9.184;2023-03-26T14:53:26;1.70;;;1.23;;
9218;SDS011;4644;48.858;9.184;2023-03-26T14:56:05;1.53;;;1.13;;
9218;SDS011;4644;48.858;9.184;2023-03-26T15:02:12;1.60;;;1.20;;
9218;SDS011;4644;48.858;9.184;2023-03-26T15:05:17;2.17;;;1.40;;
9218;SDS011;4644;48.858;9.184;2023-03-26T15:11:22;1.40;;;1.30;;
9218;SDS011;4644;48.858;9.184;2023-03-26T15:17:17;0.97;;;0.90;;
9218;SDS011;4644;48.858;9.184;2023-03-26T15:20:14;0.50;;;0.50;;
9218;SDS011;4644;48.858;9.184;2023-03-26T15:23:21;0.80;;;0.80;;
9218;SDS011;4644;48.858;9.184;2023-03-26T15:26:23;1.30;;;0.60;;
9218;SDS011;4644;48.858;9.184;2023-03-26T15:32:34;0.60;;;0.60;;
9218;SDS011;4644;48.858;9.184;2023-03-26T15:41:40;0.70;;;0.70;;
9218;SDS011;4644;48.858;9.184;2023-03-26T15:44:18;0.70;;;0.70;;
9218;SDS011;4644;48.858;9.184;2023-03-26T15:47:15;1.00;;;0.90;;
9218;SDS011;4644;48.858;9.184;2023-03-26T15:50:10;0.70;;;0.70;;
9218;SDS011;4644;48.858;9.184;2023-03-26T15:52:55;1.00;;;1.00;;
9218;SDS011;4644;48.858;9.184;2023-03-26T15:55:32;0.90;;;0.90;;
9218;SDS011;4644;48.858;9.184;2023-03-26T15:58:07;0.80;;;0.80;;
9218;SDS011;4644;48.858;9.184;2023-03-26T16:00:46;0.70;;;0.70;;
9218;SDS011;4644;48.858;9.184;2023-03-26T16:03:27;0.77;;;0.77;;
9218;SDS011;4644;48.858;9.184;2023-03-26T16:06:16;1.50;;;0.83;;
9218;SDS011;4644;48.858;9.184;2023-03-26T16:08:59;0.60;;;0.60;;
9218;SDS011;4644;48.858;9.184;2023-03-26T16:11:42;0.77;;;0.77;;
9218;SDS011;4644;48.858;9.184;2023-03-26T16:14:20;0.80;;;0.70;;
9218;SDS011;4644;48.858;9.184;2023-03-26T16:16:50;0.50;;;0.50;;
9218;SDS011;4644;48.858;9.184;2023-03-26T16:22:15;0.73;;;0.67;;
9218;SDS011;4644;48.858;9.184;2023-03-26T16:28:28;1.20;;;0.60;;
9218;SDS011;4644;48.858;9.184;2023-03-26T16:31:16;0.87;;;0.70;;
9218;SDS011;4644;48.858;9.184;2023-03-26T16:33:49;0.60;;;0.60;;
9218;SDS011;4644;48.858;9.184;2023-03-26T16:36:24;0.97;;;0.90;;
9218;SDS011;4644;48.858;9.184;2023-03-26T16:41:54;2.50;;;2.30;;
9218;SDS011;4644;48.858;9.184;2023-03-26T16:44:27;2.13;;;1.20;;
9218;SDS011;4644;48.858;9.184;2023-03-26T16:47:08;2.27;;;0.73;;
9218;SDS011;4644;48.858;9.184;2023-03-26T16:49:49;0.70;;;0.70;;
9218;SDS011;4644;48.858;9.184;2023-03-26T16:52:31;0.83;;;0.80;;
9218;SDS011;4644;48.858;9.184;2023-03-26T16:55:13;0.83;;;0.80;;
9218;SDS011;4644;48.858;9.184;2023-03-26T16:57:51;0.70;;;0.70;;
9218;SDS011;4644;48.858;9.184;2023-03-26T17:00:25;1.27;;;0.97;;
9218;SDS011;4644;48.858;9.184;2023-03-26T17:06:02;1.00;;;1.00;;
9218;SDS011;4644;48.858;9.184;2023-03-26T17:08:36;1.23;;;0.90;;
9218;SDS011;4644;48.858;9.184;2023-03-26T17:11:15;1.93;;;1.10;;
9218;SDS011;4644;48.858;9.184;2023-03-26T17:13:49;1.07;;;0.93;;
9218;SDS011;4644;48.858;9.184;2023-03-26T17:16:28;0.70;;;0.70;;